Rice Lake, Wisconsin
Current Conditions -  °F | °C
As of 12:15 AM on Thursday 23 Oct 2014 (Local Time) from KRPD Reporting Station
Light Rain Light Rain  
Wind Chill: 45°   Ceiling: 7500
Heat Index: 49°   Visibility: 10mi
Dew Point: 40°   Wind: 9mph
Humidity: 72%   Direction: 120°ESE
Pressure: 30.09"   Gusts: NA
Location:  45.49°N, 91.73°W
Report Text: KRPD 230515Z AUTO 12008KT 10SM -RA SCT055 BKN075 OVC090 10/05 A3009 RMK AO2 T00950047
Loading
Personal Weather Stations






























Interactive Weather Map
Tropical Storm Tracking
New forecast layout! Learn more

10-Day Weather Forecast

Advertisements
Track Severe Weather on mobile